JAL527 RJTT-RJCC
Flight info
| Callsign | JAL527 |
|---|---|
| Flight time | N/A |
| Altitude | 33000 |
| Route | BRUCE AGRIS Y11 SAMBO Y119 OHMAR Y13 SIRAO Y139 NAVER |
| Aircraft | A359/H-SDE2E3GHIJ1J3J4J5LM1ORWXYZ/LB1D1 |
Departure
| Time | 2026-05-04 10:13 |
|---|---|
| Airport | Tokyo Haneda International Airport (RJTT) |
Arrival
| Time | N/A |
|---|---|
| Airport | New Chitose Airport (RJCC) |
| Time | Latitude | Longitude | Altitude | Speed | Heading |
|---|---|---|---|---|---|
| 2026-05-04 09:49 | 35.54767 | 139.78331 | 35 ft | 0 kts | 20° |
| 2026-05-04 09:57 | 35.54763 | 139.78329 | 30 ft | 2 kts | 20° |
| 2026-05-04 09:57 | 35.54746 | 139.78321 | 28 ft | 3 kts | 20° |
| 2026-05-04 09:58 | 35.54727 | 139.78313 | 28 ft | 3 kts | 20° |
| 2026-05-04 09:58 | 35.54708 | 139.78304 | 28 ft | 3 kts | 20° |
| 2026-05-04 09:58 | 35.54690 | 139.78295 | 28 ft | 3 kts | 31° |
| 2026-05-04 10:00 | 35.54711 | 139.78204 | 29 ft | 4 kts | 150° |
| 2026-05-04 10:00 | 35.54712 | 139.78203 | 29 ft | 1 kts | 150° |
| 2026-05-04 10:04 | 35.54765 | 139.78037 | 28 ft | 15 kts | 330° |
| 2026-05-04 10:04 | 35.54866 | 139.77964 | 28 ft | 18 kts | 329° |
| 2026-05-04 10:04 | 35.54981 | 139.77882 | 28 ft | 20 kts | 330° |
| 2026-05-04 10:04 | 35.55111 | 139.77792 | 28 ft | 23 kts | 330° |
| 2026-05-04 10:05 | 35.55253 | 139.77691 | 29 ft | 24 kts | 330° |
| 2026-05-04 10:05 | 35.55406 | 139.77583 | 29 ft | 26 kts | 330° |
| 2026-05-04 10:05 | 35.55525 | 139.77498 | 29 ft | 15 kts | 330° |
| 2026-05-04 10:05 | 35.55583 | 139.77461 | 28 ft | 7 kts | 346° |
| 2026-05-04 10:06 | 35.55628 | 139.77498 | 27 ft | 10 kts | 47° |
| 2026-05-04 10:06 | 35.55690 | 139.77504 | 28 ft | 10 kts | 343° |
| 2026-05-04 10:06 | 35.55759 | 139.77459 | 27 ft | 13 kts | 330° |
| 2026-05-04 10:08 | 35.56152 | 139.77767 | 31 ft | 20 kts | 59° |
| 2026-05-04 10:08 | 35.56226 | 139.77924 | 32 ft | 23 kts | 60° |
| 2026-05-04 10:08 | 35.56310 | 139.78101 | 31 ft | 25 kts | 59° |
| 2026-05-04 10:08 | 35.56398 | 139.78285 | 31 ft | 19 kts | 59° |
| 2026-05-04 10:09 | 35.56442 | 139.78378 | 31 ft | 4 kts | 60° |
| 2026-05-04 10:09 | 35.56462 | 139.78421 | 32 ft | 7 kts | 60° |
| 2026-05-04 10:09 | 35.56487 | 139.78474 | 32 ft | 3 kts | 60° |
| 2026-05-04 10:09 | 35.56498 | 139.78497 | 32 ft | 3 kts | 60° |
| 2026-05-04 10:10 | 35.56502 | 139.78507 | 32 ft | 1 kts | 60° |
| 2026-05-04 10:10 | 35.56506 | 139.78516 | 23 ft | 3 kts | 60° |
| 2026-05-04 10:10 | 35.56529 | 139.78565 | 38 ft | 8 kts | 60° |
| 2026-05-04 10:10 | 35.56548 | 139.78604 | 34 ft | 8 kts | 60° |
| 2026-05-04 10:11 | 35.56564 | 139.78651 | 36 ft | 5 kts | 85° |
| 2026-05-04 10:11 | 35.56549 | 139.78683 | 37 ft | 5 kts | 137° |
| 2026-05-04 10:11 | 35.56528 | 139.78698 | 37 ft | 0 kts | 150° |
| 2026-05-04 10:12 | 35.56521 | 139.78703 | 37 ft | 8 kts | 150° |
| 2026-05-04 10:12 | 35.56282 | 139.78872 | 33 ft | 78 kts | 150° |
| 2026-05-04 10:12 | 35.55601 | 139.79355 | 34 ft | 144 kts | 150° |
| 2026-05-04 10:12 | 35.54625 | 139.80073 | 427 ft | 166 kts | 153° |
| 2026-05-04 10:13 | 35.53672 | 139.80796 | 1303 ft | 157 kts | 155° |
| 2026-05-04 10:13 | 35.52848 | 139.81708 | 1855 ft | 165 kts | 138° |
| 2026-05-04 10:13 | 35.52086 | 139.82846 | 2174 ft | 180 kts | 134° |
| 2026-05-04 10:13 | 35.51293 | 139.84065 | 2644 ft | 182 kts | 135° |
| 2026-05-04 10:14 | 35.50419 | 139.85239 | 2982 ft | 194 kts | 141° |
| 2026-05-04 10:14 | 35.49396 | 139.86435 | 3222 ft | 213 kts | 142° |
| 2026-05-04 10:16 | 35.53706 | 139.96473 | 6654 ft | 275 kts | 2° |
| 2026-05-04 10:16 | 35.55656 | 139.96759 | 7206 ft | 282 kts | 2° |
| 2026-05-04 10:16 | 35.57629 | 139.97048 | 7766 ft | 288 kts | 2° |
| 2026-05-04 10:16 | 35.59639 | 139.97348 | 8346 ft | 293 kts | 2° |
| 2026-05-04 10:17 | 35.61681 | 139.97476 | 8936 ft | 295 kts | 354° |
| 2026-05-04 10:17 | 35.63751 | 139.97430 | 9532 ft | 300 kts | 352° |
| 2026-05-04 10:19 | 35.80152 | 139.96707 | 11997 ft | 373 kts | 349° |
| 2026-05-04 10:19 | 35.82762 | 139.96592 | 12432 ft | 378 kts | 348° |
| 2026-05-04 10:19 | 35.85436 | 139.96468 | 12890 ft | 381 kts | 348° |
| 2026-05-04 10:19 | 35.88073 | 139.96333 | 13321 ft | 386 kts | 348° |
| 2026-05-04 10:20 | 35.90775 | 139.96215 | 13736 ft | 390 kts | 348° |
| 2026-05-04 10:20 | 35.93497 | 139.96097 | 14156 ft | 392 kts | 348° |
| 2026-05-04 10:20 | 35.96237 | 139.95976 | 14573 ft | 395 kts | 348° |
| 2026-05-04 10:20 | 35.98712 | 139.95865 | 14944 ft | 397 kts | 348° |
| 2026-05-04 10:21 | 36.01477 | 139.95738 | 15354 ft | 401 kts | 348° |
| 2026-05-04 10:21 | 36.04272 | 139.95609 | 15754 ft | 404 kts | 348° |
| 2026-05-04 10:21 | 36.07096 | 139.95479 | 16143 ft | 407 kts | 348° |
| 2026-05-04 10:21 | 36.09944 | 139.95347 | 16546 ft | 411 kts | 348° |
| 2026-05-04 10:22 | 36.15711 | 139.95079 | 17319 ft | 417 kts | 348° |
| 2026-05-04 10:22 | 36.18582 | 139.94946 | 17697 ft | 420 kts | 348° |
| 2026-05-04 10:22 | 36.21522 | 139.94816 | 18050 ft | 424 kts | 348° |
| 2026-05-04 10:23 | 36.24522 | 139.94726 | 18380 ft | 428 kts | 348° |
| 2026-05-04 10:23 | 36.27474 | 139.94651 | 18714 ft | 430 kts | 348° |
| 2026-05-04 10:25 | 36.48838 | 139.94359 | 21097 ft | 450 kts | 352° |
| 2026-05-04 10:25 | 36.51981 | 139.94534 | 21411 ft | 453 kts | 352° |
| 2026-05-04 10:25 | 36.55140 | 139.94721 | 21733 ft | 456 kts | 352° |
| 2026-05-04 10:25 | 36.58279 | 139.94897 | 22047 ft | 457 kts | 352° |
| 2026-05-04 10:26 | 36.61506 | 139.95063 | 22374 ft | 459 kts | 352° |
| 2026-05-04 10:26 | 36.64698 | 139.95213 | 22682 ft | 461 kts | 351° |
| 2026-05-04 10:26 | 36.67874 | 139.95354 | 22989 ft | 463 kts | 351° |
| 2026-05-04 10:26 | 36.71097 | 139.95491 | 23279 ft | 465 kts | 351° |
| 2026-05-04 10:27 | 36.74331 | 139.95628 | 23530 ft | 467 kts | 351° |
| 2026-05-04 10:27 | 36.77588 | 139.95766 | 23778 ft | 469 kts | 351° |
| 2026-05-04 10:27 | 36.80859 | 139.95906 | 24034 ft | 471 kts | 351° |
| 2026-05-04 10:27 | 36.84137 | 139.96046 | 24284 ft | 472 kts | 351° |
| 2026-05-04 10:28 | 36.87491 | 139.96351 | 24529 ft | 483 kts | 359° |
| 2026-05-04 10:28 | 36.90780 | 139.97010 | 24779 ft | 488 kts | 0° |
| 2026-05-04 10:28 | 36.94124 | 139.97797 | 25030 ft | 491 kts | 2° |
| 2026-05-04 10:28 | 36.97483 | 139.98653 | 25289 ft | 494 kts | 2° |
| 2026-05-04 10:29 | 37.00860 | 139.99543 | 25552 ft | 495 kts | 2° |
| 2026-05-04 10:29 | 37.04234 | 140.00439 | 25812 ft | 497 kts | 2° |
| 2026-05-04 10:29 | 37.07636 | 140.01344 | 26074 ft | 499 kts | 2° |
| 2026-05-04 10:29 | 37.11044 | 140.02238 | 26348 ft | 501 kts | 2° |
| 2026-05-04 10:30 | 37.14467 | 140.03129 | 26605 ft | 503 kts | 2° |
| 2026-05-04 10:30 | 37.17902 | 140.04017 | 26868 ft | 505 kts | 2° |
| 2026-05-04 10:30 | 37.21342 | 140.04905 | 27127 ft | 507 kts | 2° |
| 2026-05-04 10:30 | 37.24808 | 140.05799 | 27399 ft | 509 kts | 2° |
| 2026-05-04 10:31 | 37.28256 | 140.06696 | 27477 ft | 500 kts | 2° |
| 2026-05-04 10:31 | 37.31620 | 140.07583 | 27287 ft | 489 kts | 1° |
| 2026-05-04 10:32 | 37.52200 | 140.12908 | 28259 ft | 514 kts | 1° |
| 2026-05-04 10:33 | 37.55705 | 140.13826 | 28573 ft | 516 kts | 1° |
| 2026-05-04 10:33 | 37.59233 | 140.14748 | 28895 ft | 518 kts | 1° |
| 2026-05-04 10:33 | 37.62762 | 140.15672 | 29220 ft | 520 kts | 1° |
| 2026-05-04 10:33 | 37.66319 | 140.16602 | 29545 ft | 522 kts | 1° |
| 2026-05-04 10:34 | 37.69879 | 140.17534 | 29873 ft | 524 kts | 1° |
| 2026-05-04 10:34 | 37.73447 | 140.18469 | 30162 ft | 526 kts | 1° |
| 2026-05-04 10:34 | 37.77040 | 140.19410 | 30440 ft | 529 kts | 1° |
| 2026-05-04 10:34 | 37.80649 | 140.20358 | 30742 ft | 530 kts | 1° |
| 2026-05-04 10:35 | 37.84269 | 140.21311 | 31057 ft | 532 kts | 1° |
| 2026-05-04 10:35 | 37.87902 | 140.22268 | 31350 ft | 535 kts | 1° |
| 2026-05-04 10:35 | 37.91536 | 140.23223 | 31610 ft | 537 kts | 1° |
| 2026-05-04 10:35 | 37.95228 | 140.24196 | 31908 ft | 539 kts | 1° |
| 2026-05-04 10:36 | 37.98917 | 140.25169 | 32192 ft | 542 kts | 1° |
| 2026-05-04 10:36 | 38.02628 | 140.26148 | 32456 ft | 544 kts | 1° |
| 2026-05-04 10:36 | 38.06342 | 140.27130 | 32708 ft | 547 kts | 1° |
| 2026-05-04 10:36 | 38.10035 | 140.28116 | 32755 ft | 539 kts | 1° |
| 2026-05-04 10:37 | 38.17500 | 140.30087 | 32753 ft | 558 kts | 1° |
| 2026-05-04 10:37 | 38.25155 | 140.32114 | 32736 ft | 560 kts | 2° |
| 2026-05-04 10:39 | 38.51737 | 140.39802 | 32709 ft | 564 kts | 5° |
| 2026-05-04 10:40 | 38.59327 | 140.42328 | 32730 ft | 563 kts | 5° |
| 2026-05-04 10:40 | 38.66925 | 140.44810 | 32715 ft | 563 kts | 4° |
| 2026-05-04 10:41 | 38.74517 | 140.47224 | 32726 ft | 559 kts | 1° |
| 2026-05-04 10:41 | 38.82130 | 140.48965 | 32717 ft | 554 kts | 358° |
| 2026-05-04 10:42 | 38.89706 | 140.50396 | 32721 ft | 553 kts | 357° |
| 2026-05-04 10:42 | 38.97342 | 140.51817 | 32708 ft | 555 kts | 358° |
| 2026-05-04 10:43 | 39.04996 | 140.53279 | 32715 ft | 556 kts | 358° |
| 2026-05-04 10:45 | 39.35649 | 140.59273 | 32714 ft | 557 kts | 358° |
| 2026-05-04 10:45 | 39.43317 | 140.60780 | 32695 ft | 558 kts | 358° |
| 2026-05-04 10:46 | 39.50993 | 140.62294 | 32701 ft | 558 kts | 358° |
| 2026-05-04 10:46 | 39.58662 | 140.63815 | 32683 ft | 558 kts | 358° |
| 2026-05-04 10:47 | 39.66329 | 140.65332 | 32689 ft | 553 kts | 358° |
| 2026-05-04 10:47 | 39.70083 | 140.66093 | 32684 ft | 538 kts | 358° |
| 2026-05-04 10:47 | 39.73717 | 140.66860 | 32661 ft | 522 kts | 358° |
| 2026-05-04 10:47 | 39.77247 | 140.67629 | 32637 ft | 507 kts | 358° |
| 2026-05-04 10:49 | 39.98299 | 140.71684 | 32629 ft | 404 kts | 351° |
| 2026-05-04 10:49 | 40.01045 | 140.72079 | 32546 ft | 393 kts | 351° |